Time;durP1;ratioP1;P1;durP2;ratioP2;P2;SDS_P1;SDS_P2;PMS_P1;PMS_P2;Temp;Humidity;BMP_temperature;BMP_pressure;BME280_temperature;BME280_humidity;BME280_pressure;Samples;Min_cycle;Max_cycle;Signal;HPM_P1;HPM_P2
2024/01/30 00:00:59;;;;;;;12.07;9.95;;;5.80;99.90;;;;;;5072912;28;20205;-62
2024/01/30 00:03:26;;;;;;;11.02;9.88;;;5.80;99.90;;;;;;5072791;28;20640;-61
2024/01/30 00:05:53;;;;;;;14.25;9.18;;;5.80;99.90;;;;;;5073009;28;20209;-61
2024/01/30 00:08:19;;;;;;;11.30;9.57;;;5.70;99.90;;;;;;5073383;28;20197;-61
2024/01/30 00:10:46;;;;;;;11.75;9.95;;;5.70;99.90;;;;;;5074793;28;20197;-62
2024/01/30 00:13:13;;;;;;;10.65;9.55;;;5.70;99.90;;;;;;5077939;28;20211;-61
2024/01/30 00:15:42;;;;;;;14.43;9.68;;;5.70;99.90;;;;;;5078122;28;20201;-61
2024/01/30 00:18:09;;;;;;;14.73;10.50;;;5.70;99.90;;;;;;5076236;28;20227;-63
2024/01/30 00:20:35;;;;;;;11.43;9.80;;;5.60;99.90;;;;;;5076487;28;20283;-62
2024/01/30 00:23:02;;;;;;;13.57;8.70;;;5.60;99.90;;;;;;5073460;28;20221;-62
2024/01/30 00:25:29;;;;;;;10.93;9.25;;;5.60;99.90;;;;;;5072846;28;20197;-62
2024/01/30 00:27:56;;;;;;;12.88;9.60;;;5.60;99.90;;;;;;5073455;28;20193;-62
2024/01/30 00:30:22;;;;;;;11.20;9.30;;;5.60;99.90;;;;;;5077028;28;20205;-61
2024/01/30 00:32:51;;;;;;;11.82;10.45;;;5.60;99.90;;;;;;5076619;28;20316;-61
2024/01/30 00:35:17;;;;;;;10.73;9.63;;;5.60;99.90;;;;;;5076963;28;20200;-61
2024/01/30 00:37:44;;;;;;;11.73;9.38;;;5.60;99.90;;;;;;5076804;28;20220;-62
2024/01/30 00:40:15;;;;;;;11.55;10.38;;;5.60;99.90;;;;;;5076787;28;20201;-63
2024/01/30 00:42:42;;;;;;;11.90;9.63;;;5.50;99.90;;;;;;5076670;28;20224;-63
2024/01/30 00:45:13;;;;;;;10.80;9.45;;;5.50;99.90;;;;;;5077270;28;20204;-63
2024/01/30 00:47:40;;;;;;;13.02;10.00;;;5.50;99.90;;;;;;5076429;28;20185;-63
2024/01/30 00:50:09;;;;;;;10.70;9.60;;;5.50;99.90;;;;;;5076517;28;20204;-63
2024/01/30 00:52:36;;;;;;;13.70;10.82;;;5.40;99.90;;;;;;5076457;28;20595;-63
2024/01/30 00:55:03;;;;;;;11.85;9.23;;;5.40;99.90;;;;;;5076429;28;20200;-62
2024/01/30 00:57:30;;;;;;;13.00;9.68;;;5.50;99.90;;;;;;5076446;28;20286;-62
2024/01/30 00:59:57;;;;;;;12.27;9.57;;;5.40;99.90;;;;;;5076285;28;20296;-62
2024/01/30 01:02:23;;;;;;;12.65;9.10;;;5.40;99.90;;;;;;5075862;28;20236;-63
2024/01/30 01:04:50;;;;;;;14.40;10.80;;;5.50;99.90;;;;;;5076211;28;20201;-62
2024/01/30 01:07:18;;;;;;;11.98;10.30;;;5.50;99.90;;;;;;5075891;28;20571;-62
2024/01/30 01:09:45;;;;;;;16.13;10.45;;;5.50;99.90;;;;;;5076146;28;20231;-62
2024/01/30 01:12:12;;;;;;;13.50;10.55;;;5.50;99.90;;;;;;5075783;28;20270;-62
2024/01/30 01:14:39;;;;;;;11.98;9.50;;;5.50;99.90;;;;;;5075956;28;20624;-63
2024/01/30 01:17:06;;;;;;;12.52;10.45;;;5.50;99.90;;;;;;5075824;28;20208;-62
2024/01/30 01:19:32;;;;;;;10.80;9.73;;;5.50;99.90;;;;;;5076937;28;20252;-61
2024/01/30 01:21:59;;;;;;;11.20;9.90;;;5.50;99.90;;;;;;5078190;28;20220;-62
2024/01/30 01:24:27;;;;;;;10.80;9.63;;;5.50;99.90;;;;;;5077883;28;20208;-62
2024/01/30 01:26:54;;;;;;;12.80;9.93;;;5.50;99.90;;;;;;5078412;28;20207;-62
2024/01/30 01:29:28;;;;;;;12.38;10.35;;;5.50;99.90;;;;;;5077912;28;20197;-62
2024/01/30 01:31:55;;;;;;;10.63;9.27;;;5.50;99.90;;;;;;5075554;28;20328;-62
2024/01/30 01:34:22;;;;;;;15.13;10.05;;;5.60;99.90;;;;;;5075400;28;20671;-63
2024/01/30 01:36:49;;;;;;;13.88;10.95;;;5.60;99.90;;;;;;5075321;28;20212;-62
2024/01/30 01:39:16;;;;;;;12.98;9.93;;;5.60;99.90;;;;;;5075131;28;20239;-63
2024/01/30 01:41:44;;;;;;;13.10;10.60;;;5.60;99.90;;;;;;5075338;28;20224;-63
2024/01/30 01:44:11;;;;;;;13.07;8.88;;;5.60;99.90;;;;;;5075406;28;20659;-64
2024/01/30 01:46:38;;;;;;;11.05;9.85;;;5.60;99.90;;;;;;5075444;28;20595;-63
2024/01/30 01:49:06;;;;;;;12.63;9.70;;;5.60;99.90;;;;;;5075457;28;20209;-63
2024/01/30 01:51:36;;;;;;;13.77;8.90;;;5.60;99.90;;;;;;5075301;28;20670;-63
2024/01/30 01:54:05;;;;;;;13.90;10.32;;;5.60;99.90;;;;;;5075639;28;20203;-63
2024/01/30 01:56:33;;;;;;;12.00;9.68;;;5.60;99.90;;;;;;5075069;28;20251;-63
2024/01/30 01:59:06;;;;;;;11.93;9.30;;;5.60;99.90;;;;;;5075155;28;20221;-63
2024/01/30 02:01:34;;;;;;;10.10;9.00;;;5.60;99.90;;;;;;5075088;28;20235;-63
2024/01/30 02:04:01;;;;;;;17.75;10.73;;;5.70;99.90;;;;;;5075263;28;20201;-63
2024/01/30 02:06:28;;;;;;;11.15;10.00;;;5.70;99.90;;;;;;5074966;28;20205;-62
2024/01/30 02:08:55;;;;;;;12.43;9.85;;;5.70;99.90;;;;;;5074749;28;20228;-62
2024/01/30 02:11:23;;;;;;;16.52;11.02;;;5.70;99.90;;;;;;5075253;28;20226;-62
2024/01/30 02:13:51;;;;;;;14.57;9.50;;;5.70;99.90;;;;;;5075305;28;20205;-63
2024/01/30 02:16:19;;;;;;;14.30;10.57;;;5.70;99.90;;;;;;5074763;28;20209;-62
2024/01/30 02:18:47;;;;;;;10.32;8.77;;;5.70;99.90;;;;;;5074622;28;20225;-61
2024/01/30 02:21:16;;;;;;;12.88;10.48;;;5.70;99.90;;;;;;5074871;28;20278;-61
2024/01/30 02:23:44;;;;;;;16.92;10.88;;;5.70;99.90;;;;;;5074419;28;20693;-61
2024/01/30 02:26:11;;;;;;;13.38;10.18;;;5.70;99.90;;;;;;5074500;28;20211;-61
2024/01/30 02:28:38;;;;;;;13.43;10.85;;;5.70;99.90;;;;;;5074562;28;20201;-60
2024/01/30 02:31:06;;;;;;;12.90;9.88;;;5.80;99.90;;;;;;5074798;28;20586;-61
2024/01/30 02:33:33;;;;;;;14.88;12.18;;;5.80;99.90;;;;;;5074858;28;20270;-61
2024/01/30 02:35:59;;;;;;;15.77;10.13;;;5.80;99.90;;;;;;5074202;28;20671;-61
2024/01/30 02:38:28;;;;;;;14.18;10.38;;;5.90;99.90;;;;;;5074695;28;20300;-61
2024/01/30 02:40:55;;;;;;;11.07;9.30;;;5.90;99.90;;;;;;5074525;28;20197;-61
2024/01/30 02:43:22;;;;;;;15.25;11.00;;;5.90;99.90;;;;;;5074732;28;20689;-62
2024/01/30 02:45:49;;;;;;;11.75;9.88;;;5.90;99.90;;;;;;5074675;28;20221;-62
2024/01/30 02:48:15;;;;;;;13.32;10.20;;;5.90;99.90;;;;;;5074908;28;20212;-61
2024/01/30 02:50:42;;;;;;;12.70;10.02;;;6.00;99.90;;;;;;5074810;28;20292;-61
2024/01/30 02:53:09;;;;;;;22.23;12.15;;;6.00;99.90;;;;;;5073965;28;20200;-61
2024/01/30 02:55:37;;;;;;;14.05;11.00;;;6.00;99.90;;;;;;5076075;28;20257;-61
2024/01/30 02:58:04;;;;;;;11.55;10.35;;;6.00;99.90;;;;;;5076706;28;20197;-61
2024/01/30 03:00:31;;;;;;;12.05;10.05;;;6.10;99.90;;;;;;5075604;28;20201;-61
2024/01/30 03:02:58;;;;;;;12.02;10.07;;;6.10;99.90;;;;;;5074159;28;20328;-61
2024/01/30 03:05:24;;;;;;;13.73;10.18;;;6.10;99.90;;;;;;5074774;28;20211;-60
2024/01/30 03:07:51;;;;;;;11.98;9.65;;;6.10;99.90;;;;;;5073957;28;20201;-62
2024/01/30 03:10:18;;;;;;;16.15;11.50;;;6.10;99.90;;;;;;5073879;28;20201;-62
2024/01/30 03:12:46;;;;;;;13.75;10.20;;;6.10;99.90;;;;;;5073899;28;20710;-62
2024/01/30 03:15:13;;;;;;;13.50;10.15;;;6.10;99.90;;;;;;5074374;28;20211;-62
2024/01/30 03:17:40;;;;;;;13.25;10.38;;;6.10;99.90;;;;;;5073999;28;20205;-61
2024/01/30 03:20:09;;;;;;;13.63;10.40;;;6.10;99.90;;;;;;5073963;28;20590;-62
2024/01/30 03:22:35;;;;;;;13.32;10.77;;;6.10;99.90;;;;;;5073831;28;20228;-62
2024/01/30 03:25:02;;;;;;;12.60;10.35;;;6.00;99.90;;;;;;5073331;28;20201;-62
2024/01/30 03:27:29;;;;;;;10.50;9.40;;;6.00;99.90;;;;;;5073832;28;20203;-61
2024/01/30 03:29:57;;;;;;;11.02;9.93;;;6.00;99.90;;;;;;5075917;28;20197;-62
2024/01/30 03:32:24;;;;;;;13.48;8.88;;;6.00;99.90;;;;;;5074731;28;20221;-63
2024/01/30 03:34:51;;;;;;;11.52;10.25;;;6.00;99.90;;;;;;5074173;28;20203;-62
2024/01/30 03:37:18;;;;;;;13.05;10.60;;;6.00;99.90;;;;;;5074029;28;20200;-62
2024/01/30 03:39:44;;;;;;;11.20;10.00;;;6.00;99.90;;;;;;5074168;28;20560;-62
2024/01/30 03:42:11;;;;;;;12.02;10.02;;;6.00;99.90;;;;;;5073514;28;20566;-61
2024/01/30 03:44:38;;;;;;;11.13;9.63;;;6.00;99.90;;;;;;5073358;28;20550;-62
2024/01/30 03:47:06;;;;;;;14.30;9.43;;;6.00;99.90;;;;;;5072869;28;20581;-62
2024/01/30 03:49:33;;;;;;;13.73;10.43;;;6.00;99.90;;;;;;5073337;28;20200;-62
2024/01/30 03:52:00;;;;;;;16.33;10.88;;;6.00;99.90;;;;;;5073343;28;20228;-62
2024/01/30 03:54:27;;;;;;;12.27;9.77;;;6.00;99.90;;;;;;5073366;28;20215;-61
2024/01/30 03:56:53;;;;;;;17.13;10.70;;;5.90;99.90;;;;;;5073165;28;20577;-62
2024/01/30 03:59:23;;;;;;;17.63;10.90;;;5.90;99.90;;;;;;5073201;28;20217;-62
2024/01/30 04:01:50;;;;;;;10.05;8.93;;;5.90;99.90;;;;;;5072928;28;20279;-61
2024/01/30 04:04:19;;;;;;;11.00;8.93;;;5.90;99.90;;;;;;5073029;28;20208;-62
2024/01/30 04:06:45;;;;;;;17.00;11.60;;;5.90;99.90;;;;;;5073043;28;20201;-63
2024/01/30 04:09:13;;;;;;;13.20;9.70;;;5.90;99.90;;;;;;5073084;28;20224;-62
2024/01/30 04:13:05;;;;;;;10.35;8.52;;;5.80;99.90;;;;;;5194822;27;20548;-64
2024/01/30 04:15:32;;;;;;;15.38;10.20;;;5.80;99.90;;;;;;5194036;27;20197;-63
2024/01/30 04:17:59;;;;;;;14.73;10.48;;;5.90;99.90;;;;;;5194484;27;20197;-64
2024/01/30 04:20:26;;;;;;;13.07;10.43;;;5.90;99.90;;;;;;5193862;27;20201;-64
2024/01/30 04:22:53;;;;;;;14.68;10.48;;;5.90;99.90;;;;;;5193428;27;20217;-63
2024/01/30 04:25:20;;;;;;;13.38;10.07;;;5.90;99.90;;;;;;5194559;27;20548;-63
2024/01/30 04:27:46;;;;;;;17.90;10.32;;;5.90;99.90;;;;;;5193681;27;20201;-63
2024/01/30 04:30:15;;;;;;;13.43;9.93;;;5.90;99.90;;;;;;5193659;27;20298;-63
2024/01/30 04:32:41;;;;;;;11.07;9.57;;;5.90;99.90;;;;;;5193279;27;20228;-63
2024/01/30 04:35:08;;;;;;;10.32;8.30;;;5.90;99.90;;;;;;5193570;27;20201;-63
2024/01/30 04:37:35;;;;;;;11.98;10.50;;;5.90;99.90;;;;;;5193588;27;20202;-63
2024/01/30 04:40:02;;;;;;;11.35;10.20;;;5.90;99.90;;;;;;5193045;27;20197;-64
2024/01/30 04:42:29;;;;;;;11.63;9.75;;;5.90;99.90;;;;;;5194265;27;20235;-63
2024/01/30 04:44:56;;;;;;;11.60;9.20;;;5.90;99.90;;;;;;5193222;27;20193;-62
2024/01/30 04:47:24;;;;;;;12.82;10.63;;;5.80;99.90;;;;;;5193196;27;20226;-62
2024/01/30 04:49:52;;;;;;;16.23;10.07;;;5.80;99.90;;;;;;5193526;27;20288;-62
2024/01/30 04:52:19;;;;;;;11.80;9.52;;;5.80;99.90;;;;;;5193569;27;20228;-64
2024/01/30 04:54:46;;;;;;;12.88;9.05;;;5.80;99.90;;;;;;5193442;27;20197;-63
2024/01/30 04:57:13;;;;;;;10.93;9.80;;;5.80;99.90;;;;;;5193066;27;20567;-64
2024/01/30 04:59:39;;;;;;;10.55;9.18;;;5.70;99.90;;;;;;5193256;27;20201;-62
2024/01/30 05:02:06;;;;;;;10.85;9.13;;;5.70;99.90;;;;;;5180945;22;20230;-62
2024/01/30 05:04:34;;;;;;;12.52;9.93;;;5.60;99.90;;;;;;5131264;28;20274;-62
2024/01/30 05:07:01;;;;;;;11.10;9.45;;;5.60;99.90;;;;;;5133312;28;20557;-62
2024/01/30 05:09:28;;;;;;;15.07;10.13;;;5.60;99.90;;;;;;5130885;28;20545;-63
2024/01/30 05:11:55;;;;;;;13.52;10.13;;;5.60;99.90;;;;;;5131158;28;20599;-63
2024/01/30 05:14:21;;;;;;;11.50;9.30;;;5.50;99.90;;;;;;5130694;28;20202;-62
2024/01/30 05:16:48;;;;;;;10.27;9.05;;;5.50;99.90;;;;;;5131463;28;20202;-61
2024/01/30 05:19:15;;;;;;;11.75;8.55;;;5.50;99.90;;;;;;5133510;28;20195;-63
2024/01/30 05:21:43;;;;;;;13.00;10.13;;;5.50;99.90;;;;;;5133050;28;20283;-61
2024/01/30 05:24:11;;;;;;;8.98;8.07;;;5.40;99.90;;;;;;5119744;28;20199;-62
2024/01/30 05:26:38;;;;;;;11.50;9.48;;;5.40;99.90;;;;;;5117039;28;20572;-62
2024/01/30 05:29:06;;;;;;;13.15;8.77;;;5.40;99.90;;;;;;5117255;28;20207;-62
2024/01/30 05:31:33;;;;;;;13.63;9.27;;;5.40;99.90;;;;;;5117471;28;20227;-61
2024/01/30 05:34:00;;;;;;;11.35;8.95;;;5.40;99.90;;;;;;5117263;28;20206;-62
2024/01/30 05:36:27;;;;;;;11.15;9.45;;;5.30;99.90;;;;;;5117150;28;20204;-62
2024/01/30 05:38:55;;;;;;;10.60;9.20;;;5.30;99.90;;;;;;5116931;28;20207;-61
2024/01/30 05:41:21;;;;;;;11.75;10.38;;;5.30;99.90;;;;;;5117102;28;20228;-63
2024/01/30 05:43:48;;;;;;;12.35;9.63;;;5.30;99.90;;;;;;5117213;28;20211;-62
2024/01/30 05:46:15;;;;;;;11.25;8.98;;;5.30;99.90;;;;;;5118282;28;20203;-63
2024/01/30 05:48:42;;;;;;;18.00;10.90;;;5.30;99.90;;;;;;5118686;28;20207;-63
2024/01/30 05:51:09;;;;;;;12.15;10.20;;;5.30;99.90;;;;;;5118461;28;20219;-62
2024/01/30 05:53:36;;;;;;;12.05;10.23;;;5.30;99.90;;;;;;5118529;28;20206;-63
2024/01/30 05:56:04;;;;;;;11.73;9.75;;;5.30;99.90;;;;;;5118512;28;20204;-63
2024/01/30 05:58:31;;;;;;;11.77;9.60;;;5.30;99.90;;;;;;5118783;28;20290;-62
2024/01/30 06:00:58;;;;;;;10.77;9.55;;;5.30;99.90;;;;;;5117470;28;20206;-62
2024/01/30 06:03:25;;;;;;;15.00;9.60;;;5.30;99.90;;;;;;5117131;28;20180;-61
2024/01/30 06:05:52;;;;;;;13.57;9.88;;;5.30;99.90;;;;;;5116634;28;20196;-62
2024/01/30 06:08:19;;;;;;;12.60;9.77;;;5.30;99.90;;;;;;5116871;28;20578;-63
2024/01/30 06:10:47;;;;;;;12.70;9.27;;;5.30;99.90;;;;;;5116737;28;20196;-62
2024/01/30 06:13:15;;;;;;;11.00;8.85;;;5.30;99.90;;;;;;5116420;28;20251;-62
2024/01/30 06:15:42;;;;;;;11.75;10.10;;;5.30;99.90;;;;;;5116896;28;20199;-62
2024/01/30 06:18:09;;;;;;;12.73;9.13;;;5.30;99.90;;;;;;5122618;28;20205;-61
2024/01/30 06:20:36;;;;;;;13.68;9.82;;;5.30;99.90;;;;;;5121836;28;20199;-63
2024/01/30 06:23:03;;;;;;;12.20;9.85;;;5.40;99.90;;;;;;5118796;28;20223;-63
2024/01/30 06:25:29;;;;;;;12.68;9.75;;;5.40;99.90;;;;;;5116424;28;20661;-62
2024/01/30 06:27:56;;;;;;;11.85;10.02;;;5.40;99.90;;;;;;5116198;28;20669;-62
2024/01/30 06:30:24;;;;;;;14.75;10.18;;;5.40;99.90;;;;;;5116739;28;20573;-61
2024/01/30 06:32:51;;;;;;;13.63;9.07;;;5.40;99.90;;;;;;5116920;28;20223;-61
2024/01/30 06:35:18;;;;;;;12.63;9.73;;;5.40;99.90;;;;;;5116057;28;20195;-60
2024/01/30 06:37:45;;;;;;;10.68;9.15;;;5.40;99.90;;;;;;5117109;28;20584;-63
2024/01/30 06:40:13;;;;;;;10.80;9.68;;;5.40;99.90;;;;;;5115943;28;20233;-61
2024/01/30 06:42:40;;;;;;;12.98;10.07;;;5.50;99.90;;;;;;5116142;28;20216;-61
2024/01/30 06:45:08;;;;;;;13.45;9.70;;;5.50;99.90;;;;;;5116815;28;20290;-61
2024/01/30 06:47:36;;;;;;;12.25;9.90;;;5.50;99.90;;;;;;5116122;28;20211;-61
2024/01/30 06:50:03;;;;;;;11.63;10.15;;;5.50;99.90;;;;;;5117183;28;20700;-61
2024/01/30 06:52:30;;;;;;;11.93;10.00;;;5.50;99.90;;;;;;5115700;28;20707;-62
2024/01/30 06:54:57;;;;;;;11.30;9.82;;;5.50;99.90;;;;;;5116459;28;20195;-62
2024/01/30 06:57:23;;;;;;;15.95;9.38;;;5.50;99.90;;;;;;5115911;28;20195;-62
2024/01/30 06:59:52;;;;;;;11.40;9.35;;;5.50;99.90;;;;;;5115181;28;20294;-62
2024/01/30 07:02:19;;;;;;;12.20;9.25;;;5.50;99.90;;;;;;5115853;28;20227;-62
2024/01/30 07:04:47;;;;;;;12.52;10.85;;;5.50;99.90;;;;;;5115867;28;20203;-60
2024/01/30 07:07:14;;;;;;;16.88;10.70;;;5.50;99.90;;;;;;5115960;28;20210;-61
2024/01/30 07:09:42;;;;;;;13.23;10.20;;;5.50;99.90;;;;;;5116222;28;20290;-62
2024/01/30 07:12:08;;;;;;;14.27;10.75;;;5.50;99.90;;;;;;5115772;28;20226;-62
2024/01/30 07:14:35;;;;;;;12.68;10.05;;;5.50;99.90;;;;;;5115980;28;20204;-62
2024/01/30 07:17:02;;;;;;;11.35;9.95;;;5.50;99.90;;;;;;5119067;28;20246;-63
2024/01/30 07:19:29;;;;;;;11.30;9.48;;;5.50;99.90;;;;;;5119466;28;20203;-63
2024/01/30 07:21:57;;;;;;;15.23;10.30;;;5.50;99.90;;;;;;5121573;28;20212;-61
2024/01/30 07:24:24;;;;;;;11.55;9.25;;;5.50;99.90;;;;;;5123820;28;20214;-63
2024/01/30 07:26:51;;;;;;;15.48;9.15;;;5.60;99.90;;;;;;5124378;28;20199;-63
2024/01/30 07:29:18;;;;;;;11.85;9.43;;;5.60;99.90;;;;;;5125783;28;20203;-63
2024/01/30 07:31:44;;;;;;;13.80;9.60;;;5.60;99.90;;;;;;5123326;28;20223;-63
2024/01/30 07:34:12;;;;;;;12.70;10.20;;;5.60;99.90;;;;;;5123680;28;20204;-63
2024/01/30 07:36:39;;;;;;;11.52;10.25;;;5.70;99.90;;;;;;5121044;28;20204;-63
2024/01/30 07:39:07;;;;;;;10.80;8.98;;;5.70;99.90;;;;;;5121201;28;20199;-63
2024/01/30 07:41:34;;;;;;;11.75;9.02;;;5.80;99.90;;;;;;5122019;28;20241;-61
2024/01/30 07:44:01;;;;;;;11.60;8.98;;;5.80;99.90;;;;;;5122742;28;20206;-62
2024/01/30 07:46:28;;;;;;;9.68;8.63;;;5.90;99.90;;;;;;5121761;28;20528;-62
2024/01/30 07:48:55;;;;;;;12.15;9.07;;;5.90;99.90;;;;;;5122239;28;20306;-63
2024/01/30 07:51:22;;;;;;;11.75;8.90;;;6.00;99.90;;;;;;5121829;28;20219;-62
2024/01/30 07:53:49;;;;;;;10.20;9.18;;;6.00;99.90;;;;;;5121006;28;20250;-62
2024/01/30 07:56:17;;;;;;;9.65;8.57;;;6.10;99.90;;;;;;5121536;28;20204;-62
2024/01/30 07:58:44;;;;;;;10.55;9.20;;;6.20;99.90;;;;;;5120812;28;20202;-61
2024/01/30 08:01:11;;;;;;;14.75;10.77;;;6.20;99.90;;;;;;5122771;28;20227;-62
2024/01/30 08:03:39;;;;;;;9.82;8.73;;;6.30;99.90;;;;;;5123650;28;20208;-63
2024/01/30 08:06:07;;;;;;;13.90;9.82;;;6.30;99.90;;;;;;5122728;28;20204;-63
2024/01/30 08:08:34;;;;;;;10.65;9.48;;;6.40;99.90;;;;;;5121859;28;20200;-64
2024/01/30 08:11:00;;;;;;;13.10;9.43;;;6.50;99.90;;;;;;5121216;28;20230;-61
2024/01/30 08:13:28;;;;;;;12.07;8.90;;;6.50;99.90;;;;;;5122868;28;20211;-63
2024/01/30 08:15:55;;;;;;;9.82;8.55;;;6.60;99.90;;;;;;5123395;28;20203;-60
2024/01/30 08:18:22;;;;;;;12.43;9.80;;;6.60;99.90;;;;;;5121904;28;20202;-62
2024/01/30 08:20:49;;;;;;;11.30;8.82;;;6.70;99.90;;;;;;5121776;28;20202;-62
2024/01/30 08:23:15;;;;;;;10.30;8.80;;;6.70;99.90;;;;;;5121227;28;20267;-62
2024/01/30 08:25:42;;;;;;;9.23;8.32;;;6.80;99.90;;;;;;5122395;28;20206;-61
2024/01/30 08:28:09;;;;;;;13.15;8.80;;;6.80;99.90;;;;;;5122137;28;20286;-61
2024/01/30 08:30:39;;;;;;;11.55;10.23;;;6.90;99.90;;;;;;5125474;28;20213;-62
2024/01/30 08:33:05;;;;;;;10.50;9.40;;;6.90;99.90;;;;;;5127072;28;20315;-63
2024/01/30 08:35:33;;;;;;;13.80;9.02;;;7.00;99.90;;;;;;5125199;28;20263;-62
2024/01/30 08:38:00;;;;;;;10.82;9.15;;;7.00;99.90;;;;;;5124369;28;20252;-62
2024/01/30 08:40:27;;;;;;;12.07;8.52;;;7.10;99.90;;;;;;5128039;28;20211;-63
2024/01/30 08:42:54;;;;;;;12.05;9.18;;;7.10;99.90;;;;;;5127911;28;20275;-63
2024/01/30 08:45:20;;;;;;;11.05;8.88;;;7.20;99.90;;;;;;5125378;28;20290;-62
2024/01/30 08:47:49;;;;;;;13.68;9.38;;;7.20;99.90;;;;;;5127290;28;20196;-61
2024/01/30 08:50:16;;;;;;;12.18;9.52;;;7.30;99.90;;;;;;5126333;28;20214;-62
2024/01/30 08:52:42;;;;;;;8.95;8.05;;;7.30;99.90;;;;;;5127434;28;20261;-61
2024/01/30 08:55:10;;;;;;;11.38;8.85;;;7.40;99.90;;;;;;5128714;28;20200;-61
2024/01/30 08:57:37;;;;;;;11.70;9.70;;;7.50;99.90;;;;;;5129297;28;20677;-62
2024/01/30 09:00:06;;;;;;;13.88;9.02;;;7.60;99.90;;;;;;5130929;28;20546;-61
2024/01/30 09:02:33;;;;;;;10.45;8.25;;;7.60;99.90;;;;;;5130266;28;20228;-61
2024/01/30 09:05:01;;;;;;;12.02;8.90;;;7.70;99.90;;;;;;5130475;28;20303;-60
2024/01/30 09:07:28;;;;;;;9.38;8.48;;;7.70;99.90;;;;;;5130599;28;20535;-60
2024/01/30 09:09:55;;;;;;;12.43;8.25;;;7.80;99.90;;;;;;5129709;28;20200;-61
2024/01/30 09:12:21;;;;;;;10.70;8.65;;;7.80;99.90;;;;;;5129174;28;20222;-62
2024/01/30 09:14:48;;;;;;;10.18;8.07;;;7.90;99.90;;;;;;5129155;28;20231;-61
2024/01/30 09:17:15;;;;;;;13.52;9.55;;;8.00;99.90;;;;;;5127960;28;20204;-62
2024/01/30 09:19:42;;;;;;;10.77;9.18;;;8.00;99.90;;;;;;5120788;28;20209;-61
2024/01/30 09:22:10;;;;;;;11.65;8.60;;;8.10;99.90;;;;;;5119780;28;20216;-62
2024/01/30 09:24:37;;;;;;;12.52;9.30;;;8.10;99.90;;;;;;5119219;28;20196;-60
2024/01/30 09:27:04;;;;;;;13.85;8.63;;;8.20;99.90;;;;;;5119115;28;20195;-62
2024/01/30 09:29:31;;;;;;;9.98;8.50;;;8.30;99.90;;;;;;5119220;28;20210;-62
2024/01/30 09:31:58;;;;;;;9.05;8.10;;;8.30;99.90;;;;;;5120351;28;20235;-62
2024/01/30 09:34:24;;;;;;;11.88;8.80;;;8.30;99.90;;;;;;5119941;28;20235;-63
2024/01/30 09:36:51;;;;;;;12.93;8.93;;;8.40;99.90;;;;;;5120247;28;20203;-63
2024/01/30 09:39:20;;;;;;;12.73;8.68;;;8.50;99.90;;;;;;5120669;28;20203;-62
2024/01/30 09:41:50;;;;;;;9.90;8.40;;;8.50;99.90;;;;;;5119900;28;20761;-61
2024/01/30 09:44:17;;;;;;;11.52;8.32;;;8.60;99.90;;;;;;5119932;28;20191;-61
2024/01/30 09:46:47;;;;;;;14.55;10.35;;;8.70;99.90;;;;;;5117683;28;20202;-61
2024/01/30 09:49:14;;;;;;;9.48;8.48;;;8.80;99.90;;;;;;5118235;28;20300;-60
2024/01/30 09:51:41;;;;;;;13.55;8.15;;;8.80;99.90;;;;;;5117521;28;20226;-63
2024/01/30 09:54:10;;;;;;;13.32;9.60;;;8.90;99.90;;;;;;5117332;28;20219;-61
2024/01/30 09:56:38;;;;;;;9.18;8.27;;;8.90;99.90;;;;;;5118553;28;20206;-62
2024/01/30 09:59:05;;;;;;;16.17;11.10;;;9.00;99.90;;;;;;5117912;28;20554;-62
2024/01/30 10:01:35;;;;;;;11.40;8.10;;;9.10;99.90;;;;;;5118196;28;20619;-61
2024/01/30 10:04:02;;;;;;;9.83;8.47;;;9.10;99.90;;;;;;5119838;28;20195;-62
2024/01/30 10:06:29;;;;;;;9.10;8.20;;;9.20;99.90;;;;;;5119787;28;20553;-60
2024/01/30 10:08:55;;;;;;;12.40;7.93;;;9.20;99.90;;;;;;5119710;28;20490;-62
2024/01/30 10:11:23;;;;;;;8.60;7.70;;;9.20;99.90;;;;;;5119822;28;20461;-61
2024/01/30 10:13:51;;;;;;;12.97;8.83;;;9.30;99.90;;;;;;5116833;28;20484;-63
2024/01/30 10:16:17;;;;;;;11.50;8.53;;;9.40;99.90;;;;;;5117356;28;20425;-61
2024/01/30 10:18:44;;;;;;;12.20;9.33;;;9.40;99.90;;;;;;5119498;28;20496;-62
2024/01/30 10:21:11;;;;;;;8.13;7.33;;;9.50;99.90;;;;;;5118129;28;20461;-62
2024/01/30 10:23:39;;;;;;;11.30;8.90;;;9.50;99.90;;;;;;5118230;28;20437;-63
2024/01/30 10:26:08;;;;;;;12.80;9.30;;;9.60;99.90;;;;;;5117495;28;20445;-62
2024/01/30 10:28:35;;;;;;;12.10;9.13;;;9.70;99.90;;;;;;5117706;28;20441;-62
2024/01/30 10:31:03;;;;;;;11.37;8.20;;;9.80;99.90;;;;;;5117652;28;20458;-62
2024/01/30 10:33:30;;;;;;;11.00;8.70;;;9.90;99.90;;;;;;5118450;28;20554;-61
2024/01/30 10:36:01;;;;;;;9.30;7.07;;;9.90;99.90;;;;;;5117848;28;20457;-62
2024/01/30 10:38:30;;;;;;;10.20;8.53;;;10.00;99.90;;;;;;5117537;28;20806;-63
2024/01/30 10:40:58;;;;;;;10.10;8.80;;;10.10;99.90;;;;;;5118729;28;20445;-62
2024/01/30 10:43:32;;;;;;;11.73;8.70;;;10.20;99.90;;;;;;5118478;28;20442;-63
2024/01/30 10:46:10;;;;;;;10.30;8.53;;;10.30;99.90;;;;;;5117966;28;20422;-61
2024/01/30 10:48:42;;;;;;;9.00;8.10;;;10.40;99.90;;;;;;5118182;28;20425;-60
2024/01/30 10:51:12;;;;;;;9.90;8.30;;;10.50;99.90;;;;;;5117021;28;20572;-62
2024/01/30 10:53:40;;;;;;;41.57;10.83;;;10.50;99.90;;;;;;5117579;28;20474;-61
2024/01/30 10:56:07;;;;;;;55.30;12.77;;;10.50;99.90;;;;;;5117303;28;20811;-63
2024/01/30 10:58:34;;;;;;;22.70;10.10;;;10.50;99.90;;;;;;5117847;28;20927;-63
2024/01/30 11:01:02;;;;;;;15.70;11.33;;;10.40;99.90;;;;;;5118557;28;20475;-63
2024/01/30 11:03:31;;;;;;;19.47;13.47;;;10.40;99.90;;;;;;5118068;28;20809;-62
2024/01/30 11:06:01;;;;;;;19.27;14.30;;;10.50;99.90;;;;;;5117349;28;20450;-61
2024/01/30 11:08:28;;;;;;;17.20;9.90;;;10.60;99.90;;;;;;5118199;28;20862;-60
2024/01/30 11:10:57;;;;;;;10.87;8.77;;;10.70;99.90;;;;;;5117112;28;20495;-63
2024/01/30 11:13:28;;;;;;;10.23;9.23;;;10.70;99.90;;;;;;5116547;28;20481;-62
2024/01/30 11:15:55;;;;;;;13.30;8.67;;;10.80;99.90;;;;;;5116520;28;20939;-59
2024/01/30 11:18:25;;;;;;;10.60;7.40;;;10.80;99.90;;;;;;5116256;28;20449;-60
2024/01/30 11:20:53;;;;;;;13.87;8.00;;;10.90;99.90;;;;;;5115863;28;20452;-60
2024/01/30 11:23:23;;;;;;;9.70;8.70;;;11.00;99.90;;;;;;5116194;28;20449;-62
2024/01/30 11:25:49;;;;;;;10.63;8.67;;;11.10;99.90;;;;;;5116310;28;20441;-63
2024/01/30 11:28:17;;;;;;;13.57;9.23;;;11.10;99.90;;;;;;5116725;28;20671;-63
2024/01/30 11:30:44;;;;;;;8.10;7.20;;;11.20;99.90;;;;;;5118002;28;20455;-62
2024/01/30 11:33:12;;;;;;;11.00;8.13;;;11.20;99.90;;;;;;5118074;28;20442;-62
2024/01/30 11:35:40;;;;;;;10.47;8.17;;;11.20;99.90;;;;;;5118956;28;20445;-62
2024/01/30 11:38:09;;;;;;;9.57;8.57;;;11.20;99.80;;;;;;5118598;28;20818;-61
2024/01/30 11:40:38;;;;;;;12.10;9.00;;;11.30;99.70;;;;;;5119678;28;20437;-60
2024/01/30 11:43:07;;;;;;;10.30;7.83;;;11.30;99.60;;;;;;5119547;28;20465;-61
2024/01/30 11:45:36;;;;;;;11.17;9.40;;;11.30;99.40;;;;;;5118588;28;20451;-62
2024/01/30 11:48:03;;;;;;;10.93;8.97;;;11.40;99.20;;;;;;5118421;28;20580;-62
2024/01/30 11:50:30;;;;;;;10.23;7.73;;;11.40;99.00;;;;;;5116358;28;20837;-61
2024/01/30 11:52:57;;;;;;;10.27;7.63;;;11.40;98.80;;;;;;5117163;28;20468;-62
2024/01/30 11:55:26;;;;;;;12.40;8.37;;;11.40;98.90;;;;;;5117637;28;20484;-63
2024/01/30 11:57:56;;;;;;;14.43;8.57;;;11.50;98.80;;;;;;5120176;28;20447;-63
2024/01/30 12:00:22;;;;;;;10.70;8.43;;;11.50;98.60;;;;;;5117255;28;20441;-62
2024/01/30 12:02:51;;;;;;;11.20;8.20;;;11.50;98.70;;;;;;5118056;28;20470;-64
2024/01/30 12:05:19;;;;;;;10.63;8.80;;;11.60;98.50;;;;;;5118056;28;20557;-62
2024/01/30 12:07:46;;;;;;;10.00;8.40;;;11.60;98.30;;;;;;5117762;28;20448;-62
2024/01/30 12:10:14;;;;;;;9.47;7.93;;;11.70;98.10;;;;;;5117354;28;20433;-61
2024/01/30 12:12:47;;;;;;;10.30;8.27;;;11.80;97.90;;;;;;5116403;28;20461;-61
2024/01/30 12:15:14;;;;;;;9.30;7.50;;;11.80;97.70;;;;;;5119061;28;20465;-62
2024/01/30 12:17:41;;;;;;;12.20;9.03;;;11.80;97.60;;;;;;5118632;28;20826;-63
2024/01/30 12:20:10;;;;;;;9.80;7.53;;;11.80;97.70;;;;;;5115824;28;20469;-62
2024/01/30 12:22:41;;;;;;;11.87;8.00;;;11.80;97.60;;;;;;5114889;28;20829;-62
2024/01/30 12:25:09;;;;;;;9.40;8.47;;;11.90;97.60;;;;;;5114970;28;20440;-63
2024/01/30 12:27:36;;;;;;;8.60;7.70;;;11.90;97.60;;;;;;5116409;28;20445;-62
2024/01/30 12:30:08;;;;;;;8.73;7.83;;;12.00;97.40;;;;;;5115942;28;20444;-62
2024/01/30 12:32:36;;;;;;;10.23;7.40;;;12.00;97.10;;;;;;5116344;28;20464;-63
2024/01/30 12:35:04;;;;;;;12.50;9.10;;;12.00;97.20;;;;;;5120472;28;20473;-63
2024/01/30 12:37:31;;;;;;;11.30;8.63;;;12.10;97.00;;;;;;5120430;28;20441;-63
2024/01/30 12:39:58;;;;;;;14.33;8.63;;;12.10;96.90;;;;;;5120458;28;20438;-62
2024/01/30 12:42:24;;;;;;;10.43;8.03;;;12.20;96.80;;;;;;5120965;28;20467;-62
2024/01/30 12:44:51;;;;;;;10.13;7.10;;;12.20;96.50;;;;;;5119351;28;20937;-62